Portada
METAR-TAF:

METAR-TAF

Aeropuertos :

Tarento, Italia

latitud: 40-31N, longitud: 017-24E, altitud: 64 m

Observación

El informe se hizo hace 59 minutos, a las 10:50 UTC
Viento 3 kt del suroeste
Temperatura 20°C
Humedad 37%
Presión 1021 hPa
Visibilidad 10 km o más
sin nubes por debajo de 1500 m y sin presencia de cumulonimbus.

METAR: LIBG 271050Z 23003KT CAVOK 20/05 Q1021

Hora: 12:49 (11:49 UTC)

Pronóstico

El informe se hizo hace 49 minutos, a las 11:00 UTC
Pronóstico válido del 27 a las 12 UTC al 27 a las 21 UTC
Viento 8 kt del norte-noroeste
Visibilidad 10 km o más
Nubes dispersas a una altura de 3000 ft

TAF: LIBG 271100Z 2712/2721 34008KT 9999 SCT030

Observaciones y pronósticos meteorológicos de más de 4000 aeropuertos (mensajes METAR y TAF).

Los puntos amarillos y rojos representan las estaciones disponibles.

Ponga el ratón en el punto deseado para ver el nombre de la estación.

Haga clic para ver las observaciones y los pronósticos meteorológicos.

Para cambiar el mapa : haga clic en los botones verdes con una cruz de color negro para hacer un zoom, en el botón verde con un guión para alejar o en las flechas verdes para mapas adyacentes.


METAR-TAF: